Time;durP1;ratioP1;P1;durP2;ratioP2;P2;SDS_P1;SDS_P2;PMS_P1;PMS_P2;Temp;Humidity;BMP_temperature;BMP_pressure;BME280_temperature;BME280_humidity;BME280_pressure;Samples;Min_cycle;Max_cycle;Signal;HPM_P1;HPM_P2
2021/05/02 00:01:16;;;;;;;10.73;1.70;;;;;;;14.17;79.55;94872.39;1754571;81;21271;-62
2021/05/02 00:03:44;;;;;;;4.67;1.47;;;;;;;14.21;79.32;94878.83;1754123;82;21149;-63
2021/05/02 00:06:12;;;;;;;5.60;1.67;;;;;;;14.21;79.06;94872.63;1754193;81;21583;-62
2021/05/02 00:08:40;;;;;;;4.67;1.70;;;;;;;14.19;79.72;94858.61;1754201;82;21097;-62
2021/05/02 00:11:10;;;;;;;5.10;1.50;;;;;;;14.22;79.44;94850.50;1754487;82;21132;-62
2021/05/02 00:13:39;;;;;;;5.63;2.27;;;;;;;14.25;79.25;94847.23;1754248;82;21165;-63
2021/05/02 00:16:08;;;;;;;7.43;1.90;;;;;;;14.18;79.35;94840.94;1754345;81;21169;-62
2021/05/02 00:18:37;;;;;;;6.43;2.10;;;;;;;14.22;79.36;94843.87;1754244;82;21177;-62
2021/05/02 00:21:08;;;;;;;9.23;3.30;;;;;;;14.16;79.85;94842.80;1754369;82;21157;-62
2021/05/02 00:23:39;;;;;;;6.20;2.20;;;;;;;14.16;79.53;94837.05;1754170;82;21145;-62
2021/05/02 00:26:10;;;;;;;8.80;3.03;;;;;;;14.14;79.11;94832.27;1754291;81;21094;-63
2021/05/02 00:28:45;;;;;;;9.30;2.70;;;;;;;14.13;79.70;94833.19;1754282;82;21115;-62
2021/05/02 00:31:14;;;;;;;19.27;2.37;;;;;;;14.12;79.56;94834.59;1754587;82;21271;-62
2021/05/02 00:33:44;;;;;;;9.73;1.83;;;;;;;14.16;79.56;94837.48;1753965;81;21145;-63
2021/05/02 00:36:13;;;;;;;12.50;2.97;;;;;;;14.13;79.63;94831.00;1747522;81;21177;-62
2021/05/02 00:38:42;;;;;;;9.73;2.30;;;;;;;14.03;79.90;94828.75;1719698;82;21154;-62
2021/05/02 00:41:14;;;;;;;7.63;2.33;;;;;;;14.03;79.82;94826.56;1740139;82;21154;-63
2021/05/02 00:44:04;;;;;;;11.77;2.40;;;;;;;14.05;79.83;94826.89;1740848;82;21130;-63
2021/05/02 00:46:53;;;;;;;6.50;2.60;;;;;;;14.03;80.00;94823.91;1740157;82;21276;-62
2021/05/02 00:49:39;;;;;;;8.77;2.43;;;;;;;13.93;79.93;94827.91;1740399;82;21146;-62
2021/05/02 00:52:11;;;;;;;10.90;3.87;;;;;;;13.93;80.08;94822.59;1740243;82;21137;-62
2021/05/02 00:54:45;;;;;;;8.73;2.70;;;;;;;13.95;80.57;94832.68;1739941;82;21146;-63
2021/05/02 00:57:30;;;;;;;11.70;4.10;;;;;;;13.87;81.23;94825.06;1740163;82;21257;-62
2021/05/02 01:00:07;;;;;;;9.70;4.20;;;;;;;13.86;81.67;94827.33;1739433;82;21264;-62
2021/05/02 01:02:36;;;;;;;7.37;2.43;;;;;;;13.97;81.14;94827.70;1740014;82;21149;-63
2021/05/02 01:05:11;;;;;;;6.40;2.50;;;;;;;13.95;80.81;94832.68;1740212;82;21694;-62
2021/05/02 01:07:43;;;;;;;6.50;2.70;;;;;;;13.91;80.76;94821.36;1740130;82;21292;-63
2021/05/02 01:10:17;;;;;;;11.08;2.90;;;;;;;13.85;81.20;94819.81;1740357;82;21289;-62
2021/05/02 01:12:50;;;;;;;7.40;2.00;;;;;;;13.89;81.40;94810.42;1740116;82;21293;-63
2021/05/02 01:15:23;;;;;;;9.67;3.33;;;;;;;13.87;81.90;94807.83;1740151;82;21249;-62
2021/05/02 01:18:04;;;;;;;7.10;2.73;;;;;;;13.91;81.40;94790.86;1739955;82;21280;-63
2021/05/02 01:20:36;;;;;;;12.27;2.60;;;;;;;13.95;81.30;94799.53;1740115;82;21276;-63
2021/05/02 01:23:09;;;;;;;9.40;3.12;;;;;;;13.98;81.12;94790.95;1739957;82;21540;-63
2021/05/02 01:25:37;;;;;;;7.42;2.45;;;;;;;13.96;80.87;94794.61;1740451;82;21607;-62
2021/05/02 01:28:05;;;;;;;12.63;2.90;;;;;;;13.98;80.93;94789.63;1740097;82;21161;-62
2021/05/02 01:30:33;;;;;;;12.70;2.70;;;;;;;14.02;80.80;94781.95;1740010;82;21129;-63
2021/05/02 01:33:01;;;;;;;8.40;1.80;;;;;;;14.07;80.68;94777.77;1740302;82;21592;-62
2021/05/02 01:35:29;;;;;;;13.43;2.77;;;;;;;14.10;80.62;94778.95;1740794;82;21276;-63
2021/05/02 01:37:57;;;;;;;8.47;2.40;;;;;;;14.05;80.52;94779.15;1754237;82;21145;-62
2021/05/02 01:40:24;;;;;;;8.43;2.30;;;;;;;14.07;80.58;94781.74;1754118;81;21133;-63
2021/05/02 01:42:52;;;;;;;9.03;2.53;;;;;;;14.05;80.87;94779.15;1754274;82;21141;-62
2021/05/02 01:45:19;;;;;;;10.33;2.63;;;;;;;14.12;80.67;94784.20;1754072;82;21157;-63
2021/05/02 01:47:50;;;;;;;6.20;2.40;;;;;;;14.16;80.48;94776.47;1754074;81;21588;-63
2021/05/02 01:50:18;;;;;;;8.77;2.87;;;;;;;14.11;80.48;94771.84;1754297;82;21125;-63
2021/05/02 01:52:51;;;;;;;8.30;2.40;;;;;;;14.01;80.66;94779.34;1753914;82;21636;-63
2021/05/02 01:55:21;;;;;;;7.50;2.00;;;;;;;14.04;80.52;94776.58;1754547;82;21528;-63
2021/05/02 01:57:51;;;;;;;9.87;3.40;;;;;;;14.05;80.52;94774.31;1754001;81;21121;-63
2021/05/02 02:00:39;;;;;;;12.73;5.30;;;;;;;13.96;81.13;94768.98;1754298;82;21137;-63
2021/05/02 02:03:09;;;;;;;8.10;2.83;;;;;;;14.00;81.25;94762.58;1754264;82;21137;-63
2021/05/02 02:05:39;;;;;;;12.03;3.27;;;;;;;14.05;80.80;94762.38;1754100;82;21588;-62
2021/05/02 02:08:08;;;;;;;11.90;2.87;;;;;;;14.01;80.56;94755.48;1754272;81;21137;-62
2021/05/02 02:10:39;;;;;;;10.80;3.47;;;;;;;14.02;81.31;94756.75;1754098;81;21109;-63
2021/05/02 02:13:11;;;;;;;10.30;3.27;;;;;;;14.03;81.04;94749.64;1753818;81;21157;-63
2021/05/02 02:15:41;;;;;;;12.37;3.33;;;;;;;13.99;80.56;94751.59;1754579;82;21130;-63
2021/05/02 02:18:11;;;;;;;10.37;2.90;;;;;;;13.94;80.87;94747.44;1754190;82;21113;-63
2021/05/02 02:20:46;;;;;;;11.57;2.13;;;;;;;14.01;80.87;94739.12;1753918;81;21136;-63
2021/05/02 02:23:28;;;;;;;6.13;2.73;;;;;;;14.06;80.67;94734.47;1754174;82;21560;-62
2021/05/02 02:26:03;;;;;;;8.30;3.00;;;;;;;13.98;80.81;94742.36;1754078;82;21536;-63
2021/05/02 02:28:31;;;;;;;9.30;2.63;;;;;;;13.90;80.49;94737.41;1736234;82;21172;-62
2021/05/02 02:30:59;;;;;;;10.27;4.03;;;;;;;13.81;80.55;94741.82;1754127;82;21126;-63
2021/05/02 02:33:31;;;;;;;12.43;3.30;;;;;;;13.69;81.44;94740.56;1753794;82;21149;-63
2021/05/02 02:36:01;;;;;;;11.83;2.70;;;;;;;13.65;80.90;94746.92;1754541;81;21543;-63
2021/05/02 02:38:30;;;;;;;7.90;2.83;;;;;;;13.60;80.98;94743.61;1754130;82;21555;-62
2021/05/02 02:40:58;;;;;;;11.23;3.67;;;;;;;13.60;81.02;94753.74;1753940;82;21126;-63
2021/05/02 02:43:31;;;;;;;7.70;2.80;;;;;;;13.56;81.30;94752.17;1754026;81;21160;-62
2021/05/02 02:46:05;;;;;;;9.90;3.73;;;;;;;13.50;80.81;94752.89;1754469;81;21240;-63
2021/05/02 02:48:36;;;;;;;12.23;4.03;;;;;;;13.39;81.35;94743.63;1753906;82;21153;-63
2021/05/02 02:51:07;;;;;;;12.57;3.60;;;;;;;13.30;81.74;94743.16;1754258;82;21130;-63
2021/05/02 02:53:36;;;;;;;8.03;2.53;;;;;;;13.18;82.06;94745.84;1754044;82;21145;-63
2021/05/02 02:56:08;;;;;;;10.50;2.87;;;;;;;13.14;82.15;94737.16;1753978;81;21144;-62
2021/05/02 02:59:05;;;;;;;5.70;2.52;;;;;;;13.12;82.13;94744.77;1754502;82;21543;-62
2021/05/02 03:01:40;;;;;;;9.90;2.63;;;;;;;13.11;82.23;94747.88;1754188;82;21121;-63
2021/05/02 03:04:11;;;;;;;9.03;2.40;;;;;;;13.09;82.52;94748.87;1753863;82;21134;-62
2021/05/02 03:06:39;;;;;;;8.03;2.17;;;;;;;13.02;82.35;94749.58;1754476;82;21129;-62
2021/05/02 03:09:08;;;;;;;14.53;3.80;;;;;;;12.97;82.24;94746.27;1727112;82;21133;-63
2021/05/02 03:11:37;;;;;;;8.60;2.47;;;;;;;13.02;82.31;94745.61;1754138;81;21584;-63
2021/05/02 03:14:05;;;;;;;9.70;3.07;;;;;;;13.06;82.23;94736.63;1754633;81;21696;-63
2021/05/02 03:16:35;;;;;;;6.93;3.00;;;;;;;12.97;83.05;94748.44;1754057;82;21166;-62
2021/05/02 03:19:09;;;;;;;12.70;2.80;;;;;;;12.94;83.00;94758.31;1754133;82;21181;-63
2021/05/02 03:22:08;;;;;;;8.50;2.98;;;;;;;12.96;82.76;94749.37;1754054;82;21579;-62
2021/05/02 03:24:46;;;;;;;10.60;5.57;;;;;;;12.95;83.35;94764.88;1754537;81;21543;-62
2021/05/02 03:27:20;;;;;;;10.40;4.27;;;;;;;13.02;83.15;94762.83;1727013;82;21106;-63
2021/05/02 03:29:49;;;;;;;10.53;3.47;;;;;;;13.09;83.28;94760.79;1754434;81;21125;-62
2021/05/02 03:32:20;;;;;;;15.07;4.60;;;;;;;13.12;82.77;94759.33;1754354;82;21146;-62
2021/05/02 03:34:50;;;;;;;8.90;3.73;;;;;;;13.05;83.58;94760.51;1726517;82;21128;-63
2021/05/02 03:37:20;;;;;;;17.33;6.20;;;;;;;13.12;83.22;94756.22;1731048;81;21564;-63
2021/05/02 03:39:50;;;;;;;29.13;11.27;;;;;;;13.17;82.80;94751.58;1734315;81;21272;-62
2021/05/02 03:42:18;;;;;;;25.40;11.07;;;;;;;13.18;82.69;94755.13;1762081;81;21295;-63
2021/05/02 03:44:46;;;;;;;23.17;12.33;;;;;;;13.27;82.51;94756.53;1761888;81;21165;-63
2021/05/02 03:47:14;;;;;;;23.70;12.00;;;;;;;13.25;82.75;94759.67;1762155;81;21159;-63
2021/05/02 03:49:43;;;;;;;14.67;7.20;;;;;;;13.29;82.52;94762.64;1761936;81;21133;-63
2021/05/02 03:52:14;;;;;;;21.53;10.17;;;;;;;13.30;82.27;94759.91;1761954;81;21934;-63
2021/05/02 03:54:43;;;;;;;14.77;5.87;;;;;;;13.31;82.78;94756.34;1761963;81;21259;-63
2021/05/02 03:57:11;;;;;;;15.53;4.60;;;;;;;13.39;82.38;94766.14;1761882;81;21156;-63
2021/05/02 03:59:40;;;;;;;16.63;7.33;;;;;;;13.34;82.63;94767.28;1761971;81;21287;-62
2021/05/02 04:02:08;;;;;;;26.10;9.90;;;;;;;13.30;82.66;94761.23;1762148;81;21282;-63
2021/05/02 04:04:37;;;;;;;22.97;9.80;;;;;;;13.31;82.68;94765.63;1761772;81;21271;-63
2021/05/02 04:07:09;;;;;;;21.17;9.33;;;;;;;13.36;82.84;94757.48;1762132;81;21169;-62
2021/05/02 04:09:40;;;;;;;13.75;6.33;;;;;;;13.40;82.50;94757.26;1762097;81;21128;-62
2021/05/02 04:12:10;;;;;;;15.00;6.83;;;;;;;13.51;82.17;94767.89;1762210;81;21128;-63
2021/05/02 04:14:38;;;;;;;14.37;4.87;;;;;;;13.44;82.58;94769.93;1762303;81;21153;-63
2021/05/02 04:17:09;;;;;;;15.37;6.03;;;;;;;13.44;82.40;94759.33;1761945;81;21275;-62
2021/05/02 04:19:41;;;;;;;11.60;4.87;;;;;;;13.47;82.57;94756.54;1761719;81;21121;-62
2021/05/02 04:22:18;;;;;;;12.67;4.97;;;;;;;13.46;82.65;94765.91;1761968;81;21288;-63
2021/05/02 04:24:48;;;;;;;16.53;5.87;;;;;;;13.47;82.80;94757.87;1762048;81;21717;-62
2021/05/02 04:27:16;;;;;;;21.80;9.13;;;;;;;13.58;82.81;94766.67;1762150;81;21562;-62
2021/05/02 04:29:44;;;;;;;17.00;5.43;;;;;;;13.68;82.79;94752.08;1761964;81;21306;-63
2021/05/02 04:32:12;;;;;;;18.73;5.00;;;;;;;13.81;82.54;94748.45;1762009;81;21543;-63
2021/05/02 04:34:40;;;;;;;22.70;6.87;;;;;;;13.88;82.16;94749.02;1761858;81;21145;-63
2021/05/02 04:37:07;;;;;;;14.23;5.70;;;;;;;13.94;82.50;94751.41;1754123;81;21173;-62
2021/05/02 04:39:36;;;;;;;16.60;5.53;;;;;;;14.02;82.46;94745.28;1740048;81;21426;-63
2021/05/02 04:42:05;;;;;;;12.93;4.27;;;;;;;14.09;82.18;94739.25;1740439;82;21138;-62
2021/05/02 04:44:32;;;;;;;10.17;3.53;;;;;;;14.18;82.00;94746.77;1740334;82;21145;-62
2021/05/02 04:47:00;;;;;;;11.13;3.40;;;;;;;14.23;81.62;94735.00;1740124;81;21284;-63
2021/05/02 04:49:28;;;;;;;9.93;3.10;;;;;;;14.24;81.32;94750.00;1740211;82;21740;-63
2021/05/02 04:51:56;;;;;;;11.43;5.03;;;;;;;14.29;81.51;94755.95;1740507;81;21138;-62
2021/05/02 04:54:24;;;;;;;8.67;3.40;;;;;;;14.43;81.43;94749.98;1740179;82;21694;-62
2021/05/02 04:56:51;;;;;;;15.60;3.43;;;;;;;14.55;81.07;94749.91;1740158;82;21173;-63
2021/05/02 04:59:19;;;;;;;11.00;4.70;;;;;;;14.70;80.78;94731.06;1740176;82;21126;-62
2021/05/02 05:01:46;;;;;;;13.70;4.47;;;;;;;14.88;81.13;94733.28;1739991;82;21268;-62
2021/05/02 05:04:15;;;;;;;12.63;3.83;;;;;;;15.15;80.79;94733.25;1740187;82;21284;-63
2021/05/02 05:06:42;;;;;;;9.40;4.23;;;;;;;15.25;79.50;94744.75;1740163;82;21304;-63
2021/05/02 05:09:10;;;;;;;9.20;2.73;;;;;;;15.37;79.18;94756.06;1740048;81;21258;-62
2021/05/02 05:11:37;;;;;;;9.70;3.70;;;;;;;15.39;78.53;94742.70;1740114;82;21304;-63
2021/05/02 05:14:05;;;;;;;6.57;3.20;;;;;;;15.43;78.56;94746.94;1740068;82;21111;-63
2021/05/02 05:16:33;;;;;;;12.23;4.60;;;;;;;15.48;78.15;94760.38;1740210;82;21129;-63
2021/05/02 05:19:01;;;;;;;8.77;5.13;;;;;;;15.53;78.39;94762.34;1740107;82;21336;-63
2021/05/02 05:21:29;;;;;;;12.63;4.55;;;;;;;15.61;78.49;94753.97;1740337;82;21137;-63
2021/05/02 05:23:56;;;;;;;8.37;3.47;;;;;;;15.61;78.78;94751.30;1719413;82;21149;-62
2021/05/02 05:26:24;;;;;;;13.75;5.37;;;;;;;15.63;78.39;94764.05;1740288;82;21532;-63
2021/05/02 05:28:51;;;;;;;8.43;3.70;;;;;;;15.72;76.20;94755.64;1739973;82;21311;-62
2021/05/02 05:31:19;;;;;;;9.75;4.72;;;;;;;15.81;75.29;94737.00;1740140;81;21264;-62
2021/05/02 05:33:47;;;;;;;6.53;3.10;;;;;;;15.91;76.08;94747.55;1739940;82;21264;-62
2021/05/02 05:36:14;;;;;;;5.37;2.40;;;;;;;15.98;76.36;94751.60;1740175;82;21154;-63
2021/05/02 05:38:42;;;;;;;3.95;1.40;;;;;;;16.05;76.22;94755.25;1752566;81;21129;-63
2021/05/02 05:41:09;;;;;;;4.08;0.88;;;;;;;16.17;71.23;94752.80;1754099;81;21144;-63
2021/05/02 05:43:37;;;;;;;3.40;1.27;;;;;;;16.39;71.91;94745.84;1753929;82;21619;-63
2021/05/02 05:46:05;;;;;;;2.92;1.30;;;;;;;16.53;72.68;94736.22;1754090;81;21141;-63
2021/05/02 05:48:32;;;;;;;2.92;1.02;;;;;;;16.64;72.03;94739.16;1754082;82;21129;-62
2021/05/02 05:51:00;;;;;;;4.12;1.40;;;;;;;16.71;72.48;94734.36;1754099;82;21451;-63
2021/05/02 05:53:28;;;;;;;4.28;2.05;;;;;;;16.78;72.54;94739.73;1754187;82;21584;-63
2021/05/02 05:55:57;;;;;;;2.80;1.10;;;;;;;16.84;72.64;94746.92;1726828;82;21129;-63
2021/05/02 05:58:26;;;;;;;4.30;1.12;;;;;;;16.90;71.56;94759.50;1726997;82;21137;-63
2021/05/02 06:00:54;;;;;;;3.77;1.72;;;;;;;16.89;70.15;94757.80;1754081;81;21159;-62
2021/05/02 06:03:22;;;;;;;3.47;1.37;;;;;;;16.91;69.08;94754.10;1754156;82;21563;-63
2021/05/02 06:05:50;;;;;;;3.95;1.50;;;;;;;16.89;68.52;94760.47;1753760;82;21156;-63
2021/05/02 06:08:18;;;;;;;6.03;1.60;;;;;;;16.84;67.53;94763.38;1726600;82;21592;-62
2021/05/02 06:10:46;;;;;;;2.62;1.30;;;;;;;16.81;68.28;94764.89;1726415;82;21157;-63
2021/05/02 06:13:18;;;;;;;3.80;1.55;;;;;;;16.85;68.91;94762.42;1754383;82;21114;-63
2021/05/02 06:15:46;;;;;;;4.37;2.33;;;;;;;16.85;69.25;94762.42;1754531;82;21117;-63
2021/05/02 06:18:14;;;;;;;4.03;2.30;;;;;;;16.90;69.17;94778.16;1754082;82;21532;-62
2021/05/02 06:20:42;;;;;;;7.33;2.62;;;;;;;16.95;69.35;94770.28;1753957;82;21154;-63
2021/05/02 06:23:10;;;;;;;4.85;2.83;;;;;;;16.96;69.53;94772.02;1754070;82;21133;-63
2021/05/02 06:25:37;;;;;;;4.28;1.30;;;;;;;16.90;68.86;94780.83;1753902;82;21157;-63
2021/05/02 06:28:05;;;;;;;4.40;1.10;;;;;;;16.88;69.14;94784.89;1754163;82;21109;-62
2021/05/02 06:30:33;;;;;;;2.25;1.30;;;;;;;16.86;69.69;94785.00;1754137;82;21559;-63
2021/05/02 06:33:01;;;;;;;8.75;1.52;;;;;;;16.84;70.19;94792.21;1754211;81;21141;-63
2021/05/02 06:35:29;;;;;;;3.95;1.25;;;;;;;16.80;70.61;94787.98;1754309;81;21140;-63
2021/05/02 06:37:57;;;;;;;3.55;1.30;;;;;;;16.79;71.55;94785.43;1754199;82;21168;-62
2021/05/02 06:40:25;;;;;;;4.25;2.10;;;;;;;16.80;72.48;94785.33;1754073;82;21572;-63
2021/05/02 06:42:53;;;;;;;3.70;1.70;;;;;;;16.88;71.67;94783.56;1754457;82;21137;-63
2021/05/02 06:45:20;;;;;;;6.05;1.52;;;;;;;16.89;70.47;94781.78;1754337;82;21132;-62
2021/05/02 06:47:49;;;;;;;7.03;5.37;;;;;;;16.87;70.45;94782.70;1754301;82;21141;-62
2021/05/02 06:50:17;;;;;;;5.92;2.50;;;;;;;17.02;70.60;94786.80;1754184;82;21164;-63
2021/05/02 06:52:45;;;;;;;4.47;1.70;;;;;;;17.11;70.13;94784.95;1753992;82;21131;-63
2021/05/02 06:55:12;;;;;;;4.10;2.35;;;;;;;17.16;69.47;94788.21;1754418;82;21161;-63
2021/05/02 06:57:41;;;;;;;4.95;1.80;;;;;;;17.17;69.03;94781.06;1754658;82;21147;-63
2021/05/02 07:00:11;;;;;;;5.90;2.98;;;;;;;17.25;69.31;94782.81;1754456;82;21496;-63
2021/05/02 07:02:39;;;;;;;4.75;2.10;;;;;;;17.31;69.00;94785.11;1754254;81;21579;-63
2021/05/02 07:05:09;;;;;;;4.85;2.00;;;;;;;17.27;68.63;94799.58;1754110;82;21157;-63
2021/05/02 07:07:36;;;;;;;3.90;1.50;;;;;;;17.24;68.66;94796.63;1754343;81;21136;-63
2021/05/02 07:10:06;;;;;;;4.85;1.85;;;;;;;17.28;68.18;94803.47;1754224;82;21567;-63
2021/05/02 07:12:35;;;;;;;6.45;2.75;;;;;;;17.33;69.42;94794.36;1754301;81;21149;-63
2021/05/02 07:15:04;;;;;;;6.70;2.30;;;;;;;17.37;69.13;94794.59;1753932;82;21140;-63
2021/05/02 07:17:32;;;;;;;4.40;2.60;;;;;;;17.42;69.22;94803.17;1754284;82;21603;-63
2021/05/02 07:20:00;;;;;;;6.08;2.25;;;;;;;17.54;69.78;94793.13;1754099;82;21610;-63
2021/05/02 07:22:29;;;;;;;6.67;2.70;;;;;;;17.61;69.24;94791.80;1754235;82;21137;-63
2021/05/02 07:24:57;;;;;;;4.70;2.95;;;;;;;17.65;69.68;94788.00;1754209;82;21125;-63
2021/05/02 07:27:25;;;;;;;4.62;1.98;;;;;;;17.66;69.47;94786.19;1754281;82;21140;-63
2021/05/02 07:29:52;;;;;;;6.00;1.80;;;;;;;17.62;68.57;94782.86;1754115;82;21110;-63
2021/05/02 07:32:20;;;;;;;5.45;1.40;;;;;;;17.71;69.04;94780.99;1754248;82;21168;-63
2021/05/02 07:34:48;;;;;;;4.25;1.15;;;;;;;17.80;70.17;94780.94;1753882;82;21117;-63
2021/05/02 07:37:15;;;;;;;5.80;1.60;;;;;;;17.77;68.67;94783.77;1754497;81;21279;-63
2021/05/02 07:39:43;;;;;;;3.60;1.50;;;;;;;18.04;69.16;94788.41;1754399;82;21125;-63
2021/05/02 07:42:11;;;;;;;6.12;1.20;;;;;;;18.19;68.90;94782.61;1754249;82;21583;-63
2021/05/02 07:44:38;;;;;;;3.95;1.10;;;;;;;18.25;68.20;94786.25;1754610;82;21291;-63
2021/05/02 07:47:06;;;;;;;4.83;1.20;;;;;;;18.32;67.86;94776.88;1726608;82;21577;-63
2021/05/02 07:49:34;;;;;;;5.85;1.57;;;;;;;18.35;66.37;94791.41;1754026;82;21128;-63
2021/05/02 07:52:01;;;;;;;6.95;1.40;;;;;;;18.44;67.26;94793.48;1754264;82;21144;-63
2021/05/02 07:54:29;;;;;;;4.72;1.20;;;;;;;18.60;66.74;94795.59;1754439;82;21158;-63
2021/05/02 07:56:57;;;;;;;4.05;1.75;;;;;;;18.64;64.74;94798.92;1754195;82;21604;-63
2021/05/02 07:59:24;;;;;;;3.33;1.42;;;;;;;18.75;65.52;94799.60;1754152;82;21129;-63
2021/05/02 08:01:52;;;;;;;8.00;1.62;;;;;;;18.88;65.33;94798.38;1754158;81;21149;-63
2021/05/02 08:04:20;;;;;;;6.30;1.57;;;;;;;18.97;64.23;94800.44;1754283;82;21114;-63
2021/05/02 08:06:47;;;;;;;5.55;1.27;;;;;;;19.06;64.28;94803.87;1726708;82;21619;-62
2021/05/02 08:09:14;;;;;;;6.78;1.70;;;;;;;19.12;64.66;94785.22;1754245;82;21129;-63
2021/05/02 08:11:42;;;;;;;8.43;1.50;;;;;;;19.16;64.42;94790.28;1754407;82;21148;-63
2021/05/02 08:14:10;;;;;;;7.87;1.87;;;;;;;19.33;63.10;94775.81;1754232;82;21149;-63
2021/05/02 08:16:40;;;;;;;9.05;1.50;;;;;;;19.42;63.27;94777.85;1754451;82;21133;-63
2021/05/02 08:19:07;;;;;;;6.22;1.37;;;;;;;19.46;63.68;94786.06;1754327;82;21137;-63
2021/05/02 08:21:35;;;;;;;6.85;1.47;;;;;;;19.52;61.53;94788.81;1754115;82;21587;-63
2021/05/02 08:24:04;;;;;;;8.95;1.72;;;;;;;19.78;61.45;94792.47;1754168;82;21181;-63
2021/05/02 08:26:32;;;;;;;5.42;0.90;;;;;;;19.89;57.99;94808.64;1754189;81;21166;-63
2021/05/02 08:29:00;;;;;;;5.50;1.37;;;;;;;19.76;57.39;94794.87;1754564;81;21559;-63
2021/05/02 08:31:29;;;;;;;10.30;1.75;;;;;;;19.58;58.91;94797.78;1754072;81;21563;-63
2021/05/02 08:33:56;;;;;;;7.17;1.20;;;;;;;19.74;58.70;94790.95;1754429;82;21153;-63
2021/05/02 08:36:24;;;;;;;4.20;1.17;;;;;;;20.12;57.12;94802.69;1754120;82;21567;-63
2021/05/02 08:38:53;;;;;;;9.48;1.40;;;;;;;20.12;57.12;94802.69;1745224;81;21292;-63
2021/05/02 08:41:20;;;;;;;5.05;1.35;;;;;;;20.18;57.01;94810.29;1740133;82;21288;-63
2021/05/02 08:43:54;;;;;;;7.70;1.50;;;;;;;19.98;56.60;94815.67;1740213;82;21276;-63
2021/05/02 08:46:22;;;;;;;7.40;1.85;;;;;;;19.98;56.60;94815.67;1740243;82;21317;-63
2021/05/02 08:48:51;;;;;;;7.75;1.57;;;;;;;19.87;58.16;94833.31;1740265;82;21150;-63
2021/05/02 08:51:19;;;;;;;7.47;1.50;;;;;;;19.69;61.31;94832.37;1740248;82;21706;-63
2021/05/02 08:53:47;;;;;;;6.37;1.65;;;;;;;19.69;61.31;94832.37;1740201;82;21280;-63
2021/05/02 08:56:14;;;;;;;5.20;1.87;;;;;;;19.43;60.37;94840.27;1740166;82;21710;-63
2021/05/02 08:58:42;;;;;;;7.15;1.80;;;;;;;19.11;62.16;94845.88;1740298;82;21713;-63
2021/05/02 09:01:10;;;;;;;5.12;2.22;;;;;;;18.65;64.15;94824.70;1740018;82;21283;-63
2021/05/02 09:03:42;;;;;;;4.67;1.70;;;;;;;18.51;65.31;94848.73;1740186;82;21600;-63
2021/05/02 09:06:29;;;;;;;6.92;1.20;;;;;;;18.40;66.24;94843.21;1740439;82;21147;-63
2021/05/02 09:09:06;;;;;;;4.10;1.00;;;;;;;18.33;66.04;94841.37;1740147;82;21150;-63
2021/05/02 09:11:44;;;;;;;4.62;1.30;;;;;;;18.54;64.94;94842.72;1740126;82;21291;-63
2021/05/02 09:14:25;;;;;;;5.87;1.30;;;;;;;18.67;65.33;94846.84;1719586;82;21149;-63
2021/05/02 09:16:57;;;;;;;4.75;1.80;;;;;;;18.54;64.35;94846.72;1740143;82;21297;-63
2021/05/02 09:19:31;;;;;;;6.28;2.20;;;;;;;18.45;64.58;94849.13;1740226;82;21134;-63
2021/05/02 09:22:13;;;;;;;11.93;2.10;;;;;;;18.57;63.66;94859.03;1740173;82;21288;-63
2021/05/02 09:24:41;;;;;;;;;;;;;;;18.57;63.81;94853.23;1742692;82;21253;-63
2021/05/02 09:27:14;;;;;;;9.80;1.60;;;;;;;18.94;63.38;94868.81;1740087;82;20229;-63
2021/05/02 09:29:45;;;;;;;6.78;1.52;;;;;;;19.11;61.99;94850.37;1740299;82;21130;-63
2021/05/02 09:32:15;;;;;;;8.18;1.70;;;;;;;19.54;63.61;94838.22;1740130;82;21129;-63
2021/05/02 09:34:54;;;;;;;9.10;1.95;;;;;;;19.57;59.67;94828.64;1740153;82;21165;-63
2021/05/02 09:37:31;;;;;;;9.98;1.70;;;;;;;19.69;60.04;94821.66;1740037;82;21114;-63
2021/05/02 09:40:00;;;;;;;7.83;1.60;;;;;;;19.79;59.92;94811.56;1740247;82;21675;-63
2021/05/02 09:42:35;;;;;;;9.30;1.40;;;;;;;20.04;61.92;94816.12;1740137;82;21301;-63
2021/05/02 09:45:08;;;;;;;6.83;1.47;;;;;;;20.07;55.64;94802.52;1740186;82;21276;-63
2021/05/02 09:47:39;;;;;;;10.72;1.90;;;;;;;20.15;56.70;94791.27;1740100;82;21130;-63
2021/05/02 09:50:21;;;;;;;7.92;1.42;;;;;;;20.43;58.61;94822.84;1740006;82;21135;-63
2021/05/02 09:53:01;;;;;;;10.70;2.12;;;;;;;20.30;51.65;94823.69;1740454;82;21153;-63
2021/05/02 09:55:39;;;;;;;5.47;1.20;;;;;;;20.02;53.12;94799.29;1739859;82;21280;-63
2021/05/02 09:58:16;;;;;;;9.30;1.55;;;;;;;20.09;53.45;94805.09;1740164;82;21568;-62
2021/05/02 10:00:56;;;;;;;12.10;2.55;;;;;;;20.09;53.45;94805.09;1740369;82;21276;-63
2021/05/02 10:03:27;;;;;;;9.18;1.25;;;;;;;20.14;54.04;94809.66;1740355;82;21126;-63
2021/05/02 10:06:09;;;;;;;9.85;1.10;;;;;;;20.25;53.55;94811.09;1740352;82;21125;-63
2021/05/02 10:08:41;;;;;;;6.70;1.90;;;;;;;20.17;54.13;94801.89;1740396;82;21280;-63
2021/05/02 10:11:11;;;;;;;5.30;1.22;;;;;;;20.15;53.88;94832.78;1740147;82;21556;-63
2021/05/02 10:13:40;;;;;;;7.12;1.22;;;;;;;19.74;56.45;94839.13;1740122;82;21691;-63
2021/05/02 10:16:10;;;;;;;12.05;1.85;;;;;;;19.49;58.34;94842.53;1740020;82;21248;-63
2021/05/02 10:18:38;;;;;;;9.28;1.52;;;;;;;19.35;60.09;94858.61;1740367;82;21291;-63
2021/05/02 10:21:07;;;;;;;9.48;1.32;;;;;;;19.35;60.09;94858.61;1739984;82;21299;-63
2021/05/02 10:23:36;;;;;;;5.72;1.00;;;;;;;19.20;61.37;94862.67;1740087;82;21287;-63
2021/05/02 10:26:06;;;;;;;10.75;1.35;;;;;;;18.99;61.37;94874.72;1740144;82;21316;-63
2021/05/02 10:28:35;;;;;;;9.25;1.50;;;;;;;18.63;62.88;94872.03;1740159;82;21714;-63
2021/05/02 10:31:06;;;;;;;8.33;1.62;;;;;;;18.53;63.86;94878.89;1740247;82;21305;-63
2021/05/02 10:33:45;;;;;;;9.55;1.52;;;;;;;18.59;65.81;94857.98;1740523;82;21157;-63
2021/05/02 10:36:22;;;;;;;11.68;4.10;;;;;;;18.70;63.98;94848.47;1739761;82;21098;-63
2021/05/02 10:38:57;;;;;;;8.70;1.90;;;;;;;19.05;64.26;94852.97;1740083;81;21181;-63
2021/05/02 10:41:37;;;;;;;5.83;1.50;;;;;;;19.50;65.67;94843.38;1740101;82;21119;-63
2021/05/02 10:44:16;;;;;;;9.20;1.47;;;;;;;19.94;63.04;94839.13;1740182;82;21277;-64
2021/05/02 10:46:53;;;;;;;7.58;1.32;;;;;;;20.44;63.59;94848.69;1740244;82;21683;-63
2021/05/02 10:49:27;;;;;;;7.17;1.12;;;;;;;20.96;60.36;94847.26;1740054;82;21248;-62
2021/05/02 10:52:00;;;;;;;11.40;1.20;;;;;;;21.37;61.88;94842.55;1740017;82;21544;-63
2021/05/02 10:54:43;;;;;;;10.60;2.42;;;;;;;21.71;59.53;94847.64;1740036;82;21154;-63
2021/05/02 10:57:33;;;;;;;;;;;;;;;21.95;53.06;94832.03;1729522;82;21619;-63
2021/05/02 11:00:14;;;;;;;5.53;1.20;;;;;;;21.87;51.42;94839.78;1740296;81;20158;-63
2021/05/02 11:02:48;;;;;;;8.30;1.45;;;;;;;21.89;54.82;94838.69;1740274;82;21146;-63
2021/05/02 11:05:22;;;;;;;8.98;1.12;;;;;;;22.08;50.12;94827.92;1739979;82;21264;-63
2021/05/02 11:07:49;;;;;;;8.23;1.65;;;;;;;22.18;49.60;94824.90;1739794;82;21145;-63
2021/05/02 11:10:19;;;;;;;4.72;1.27;;;;;;;22.51;53.44;94825.98;1740059;82;21139;-63
2021/05/02 11:12:47;;;;;;;14.85;1.50;;;;;;;22.47;45.60;94820.83;1740140;82;21264;-63
2021/05/02 11:15:32;;;;;;;3.83;1.05;;;;;;;22.46;46.16;94834.41;1739999;82;21148;-63
2021/05/02 11:18:00;;;;;;;5.00;0.77;;;;;;;22.56;44.12;94826.48;1740568;82;21125;-63
2021/05/02 11:20:51;;;;;;;7.47;1.05;;;;;;;22.78;43.27;94846.69;1740053;82;21726;-63
2021/05/02 11:24:00;;;;;;;6.17;1.10;;;;;;;22.66;43.89;94838.23;1740447;82;21154;-63
2021/05/02 11:27:01;;;;;;;8.20;1.40;;;;;;;22.86;41.63;94817.83;1739996;82;21162;-63
2021/05/02 11:29:38;;;;;;;7.45;1.40;;;;;;;22.96;43.34;94835.45;1740220;81;21297;-63
2021/05/02 11:32:02;;;;;;;5.42;1.15;;;;;;;23.21;44.73;94841.95;1739645;82;21115;-63
2021/05/02 11:35:01;;;;;;;10.03;1.50;;;;;;;22.90;40.57;94848.87;1740111;82;21197;-63
2021/05/02 11:37:54;;;;;;;10.08;1.05;;;;;;;22.58;43.57;94820.47;1740341;82;21141;-65
2021/05/02 11:40:27;;;;;;;7.33;1.20;;;;;;;22.72;42.16;94822.09;1740136;81;21300;-63
2021/05/02 11:43:02;;;;;;;8.28;1.57;;;;;;;23.01;44.38;94822.02;1740158;82;21275;-63
2021/05/02 11:45:49;;;;;;;9.88;1.20;;;;;;;22.93;43.09;94831.16;1740286;82;21545;-63
2021/05/02 11:48:42;;;;;;;5.05;1.10;;;;;;;22.51;42.51;94814.73;1740423;82;21157;-63
2021/05/02 11:51:22;;;;;;;5.12;0.93;;;;;;;22.22;43.54;94829.08;1740422;82;21141;-63